VOE7LJ LFBT-LPPT
Flight info
| Callsign | VOE7LJ |
|---|---|
| Flight time | 1h 38m |
| Altitude | 37000 |
| Route | LMB G17 BTZ DCT SSN P181 NEA N976 NINOS UN976 VIS DCT INBOM |
| Aircraft | A319/M-SDE3FGHIRWY/LB1 |
Departure
| Time | 2026-05-07 17:44 |
|---|---|
| Airport | Tarbes-Lourdes-Pyrénées Airport (LFBT) |
Arrival
| Time | 2026-05-07 19:23 |
|---|---|
| Airport | Lisbon Humberto Delgado Airport (LPPT) |
| Time | Latitude | Longitude | Altitude | Speed | Heading |
|---|---|---|---|---|---|
| 2026-05-07 17:12 | 43.18502 | 0.00246 | 1196 ft | 0 kts | 40° |
| 2026-05-07 17:30 | 43.18501 | 0.00245 | 1196 ft | 2 kts | 40° |
| 2026-05-07 17:31 | 43.18481 | 0.00223 | 1196 ft | 4 kts | 32° |
| 2026-05-07 17:31 | 43.18457 | 0.00206 | 1196 ft | 4 kts | 17° |
| 2026-05-07 17:31 | 43.18432 | 0.00202 | 1197 ft | 4 kts | 341° |
| 2026-05-07 17:31 | 43.18418 | 0.00214 | 1198 ft | 0 kts | 291° |
| 2026-05-07 17:37 | 43.18418 | 0.00212 | 1198 ft | 1 kts | 290° |
| 2026-05-07 17:37 | 43.18424 | 0.00192 | 1198 ft | 4 kts | 290° |
| 2026-05-07 17:37 | 43.18428 | 0.00144 | 1198 ft | 6 kts | 258° |
| 2026-05-07 17:37 | 43.18397 | 0.00102 | 1199 ft | 7 kts | 211° |
| 2026-05-07 17:38 | 43.18355 | 0.00070 | 1201 ft | 7 kts | 208° |
| 2026-05-07 17:38 | 43.18311 | 0.00038 | 1202 ft | 7 kts | 208° |
| 2026-05-07 17:38 | 43.18264 | 0.00003 | 1204 ft | 8 kts | 208° |
| 2026-05-07 17:38 | 43.18215 | -0.00034 | 1206 ft | 8 kts | 209° |
| 2026-05-07 17:39 | 43.18163 | -0.00073 | 1208 ft | 9 kts | 209° |
| 2026-05-07 17:39 | 43.18109 | -0.00116 | 1209 ft | 9 kts | 211° |
| 2026-05-07 17:39 | 43.18053 | -0.00162 | 1211 ft | 10 kts | 210° |
| 2026-05-07 17:39 | 43.17993 | -0.00208 | 1213 ft | 10 kts | 209° |
| 2026-05-07 17:40 | 43.17929 | -0.00257 | 1215 ft | 11 kts | 209° |
| 2026-05-07 17:40 | 43.17861 | -0.00310 | 1217 ft | 12 kts | 209° |
| 2026-05-07 17:40 | 43.17787 | -0.00366 | 1219 ft | 12 kts | 209° |
| 2026-05-07 17:40 | 43.17709 | -0.00426 | 1222 ft | 13 kts | 209° |
| 2026-05-07 17:41 | 43.17620 | -0.00487 | 1224 ft | 16 kts | 205° |
| 2026-05-07 17:41 | 43.17512 | -0.00549 | 1227 ft | 18 kts | 201° |
| 2026-05-07 17:41 | 43.17387 | -0.00612 | 1232 ft | 20 kts | 200° |
| 2026-05-07 17:41 | 43.17255 | -0.00677 | 1246 ft | 21 kts | 199° |
| 2026-05-07 17:42 | 43.17114 | -0.00745 | 1252 ft | 22 kts | 199° |
| 2026-05-07 17:42 | 43.16968 | -0.00824 | 1260 ft | 23 kts | 204° |
| 2026-05-07 17:42 | 43.16811 | -0.00906 | 1262 ft | 25 kts | 200° |
| 2026-05-07 17:42 | 43.16652 | -0.01010 | 1263 ft | 26 kts | 219° |
| 2026-05-07 17:43 | 43.16591 | -0.01203 | 1273 ft | 16 kts | 291° |
| 2026-05-07 17:43 | 43.16711 | -0.01223 | 1266 ft | 25 kts | 18° |
| 2026-05-07 17:43 | 43.17103 | -0.01023 | 1253 ft | 97 kts | 21° |
| 2026-05-07 17:43 | 43.17940 | -0.00588 | 1220 ft | 157 kts | 20° |
| 2026-05-07 17:44 | 43.19006 | -0.00056 | 1715 ft | 162 kts | 22° |
| 2026-05-07 17:44 | 43.20069 | 0.00476 | 2419 ft | 162 kts | 23° |
| 2026-05-07 17:44 | 43.21133 | 0.01019 | 3044 ft | 168 kts | 24° |
| 2026-05-07 17:44 | 43.22297 | 0.01618 | 3441 ft | 190 kts | 24° |
| 2026-05-07 17:45 | 43.23604 | 0.02293 | 3800 ft | 211 kts | 23° |
| 2026-05-07 17:45 | 43.25081 | 0.02684 | 4345 ft | 224 kts | 1° |
| 2026-05-07 17:45 | 43.26697 | 0.02397 | 4746 ft | 246 kts | 353° |
| 2026-05-07 17:45 | 43.28473 | 0.02016 | 5226 ft | 269 kts | 352° |
| 2026-05-07 17:46 | 43.30347 | 0.01610 | 6086 ft | 276 kts | 352° |
| 2026-05-07 17:46 | 43.32255 | 0.01197 | 7011 ft | 279 kts | 351° |
| 2026-05-07 17:46 | 43.34185 | 0.00782 | 7900 ft | 283 kts | 351° |
| 2026-05-07 17:46 | 43.36149 | 0.00366 | 8798 ft | 288 kts | 350° |
| 2026-05-07 17:47 | 43.38151 | -0.00055 | 9682 ft | 293 kts | 349° |
| 2026-05-07 17:47 | 43.40201 | -0.00486 | 10289 ft | 308 kts | 349° |
| 2026-05-07 17:47 | 43.42365 | -0.01132 | 10568 ft | 330 kts | 336° |
| 2026-05-07 17:47 | 43.44306 | -0.02926 | 10791 ft | 348 kts | 310° |
| 2026-05-07 17:48 | 43.45479 | -0.05850 | 11316 ft | 354 kts | 284° |
| 2026-05-07 17:48 | 43.45600 | -0.09220 | 12018 ft | 357 kts | 261° |
| 2026-05-07 17:48 | 43.45116 | -0.12581 | 12796 ft | 359 kts | 257° |
| 2026-05-07 17:48 | 43.44620 | -0.15965 | 13567 ft | 363 kts | 258° |
| 2026-05-07 17:49 | 43.44131 | -0.19384 | 14253 ft | 366 kts | 258° |
| 2026-05-07 17:49 | 43.43654 | -0.22786 | 14907 ft | 369 kts | 258° |
| 2026-05-07 17:49 | 43.43166 | -0.26281 | 15558 ft | 373 kts | 258° |
| 2026-05-07 17:49 | 43.42672 | -0.29805 | 16210 ft | 377 kts | 258° |
| 2026-05-07 17:50 | 43.42168 | -0.33358 | 16856 ft | 381 kts | 258° |
| 2026-05-07 17:50 | 43.41651 | -0.36948 | 17495 ft | 384 kts | 258° |
| 2026-05-07 17:50 | 43.41126 | -0.40564 | 18143 ft | 388 kts | 258° |
| 2026-05-07 17:50 | 43.40593 | -0.44223 | 18714 ft | 391 kts | 257° |
| 2026-05-07 17:51 | 43.40054 | -0.47906 | 19270 ft | 394 kts | 257° |
| 2026-05-07 17:51 | 43.39511 | -0.51610 | 19824 ft | 397 kts | 257° |
| 2026-05-07 17:51 | 43.38960 | -0.55337 | 20383 ft | 399 kts | 257° |
| 2026-05-07 17:51 | 43.38406 | -0.59093 | 20922 ft | 402 kts | 257° |
| 2026-05-07 17:52 | 43.37847 | -0.62870 | 21452 ft | 404 kts | 257° |
| 2026-05-07 17:52 | 43.37286 | -0.66668 | 21967 ft | 407 kts | 257° |
| 2026-05-07 17:52 | 43.36866 | -0.70530 | 22463 ft | 411 kts | 264° |
| 2026-05-07 17:52 | 43.36910 | -0.74481 | 22954 ft | 416 kts | 273° |
| 2026-05-07 17:53 | 43.37345 | -0.78435 | 23436 ft | 420 kts | 277° |
| 2026-05-07 17:53 | 43.37818 | -0.82416 | 23846 ft | 423 kts | 277° |
| 2026-05-07 17:53 | 43.38287 | -0.86414 | 24267 ft | 425 kts | 276° |
| 2026-05-07 17:53 | 43.38748 | -0.90382 | 24677 ft | 426 kts | 276° |
| 2026-05-07 17:54 | 43.39234 | -0.94408 | 25079 ft | 428 kts | 277° |
| 2026-05-07 17:54 | 43.39750 | -0.98455 | 25475 ft | 430 kts | 277° |
| 2026-05-07 17:54 | 43.40290 | -1.02567 | 25871 ft | 432 kts | 277° |
| 2026-05-07 17:54 | 43.40829 | -1.06644 | 26255 ft | 434 kts | 277° |
| 2026-05-07 17:55 | 43.41367 | -1.10738 | 26633 ft | 436 kts | 277° |
| 2026-05-07 17:55 | 43.41896 | -1.14794 | 26996 ft | 438 kts | 277° |
| 2026-05-07 17:55 | 43.42442 | -1.18924 | 27336 ft | 440 kts | 277° |
| 2026-05-07 17:55 | 43.43004 | -1.23123 | 27701 ft | 441 kts | 277° |
| 2026-05-07 17:56 | 43.43549 | -1.27222 | 28041 ft | 443 kts | 277° |
| 2026-05-07 17:56 | 43.44100 | -1.31406 | 28377 ft | 445 kts | 277° |
| 2026-05-07 17:56 | 43.44652 | -1.35611 | 28695 ft | 447 kts | 277° |
| 2026-05-07 17:56 | 43.45211 | -1.39869 | 29154 ft | 446 kts | 277° |
| 2026-05-07 17:57 | 43.45639 | -1.44018 | 29620 ft | 442 kts | 270° |
| 2026-05-07 17:57 | 43.45652 | -1.46862 | 29949 ft | 438 kts | 264° |
| 2026-05-07 17:57 | 43.45001 | -1.52292 | 30496 ft | 433 kts | 252° |
| 2026-05-07 17:57 | 43.43945 | -1.56151 | 30891 ft | 430 kts | 243° |
| 2026-05-07 17:58 | 43.42451 | -1.59706 | 31281 ft | 429 kts | 235° |
| 2026-05-07 17:58 | 43.40797 | -1.63112 | 31664 ft | 428 kts | 236° |
| 2026-05-07 17:58 | 43.39151 | -1.66512 | 32059 ft | 427 kts | 236° |
| 2026-05-07 17:58 | 43.37503 | -1.69915 | 32448 ft | 427 kts | 236° |
| 2026-05-07 17:59 | 43.35860 | -1.73305 | 32841 ft | 426 kts | 236° |
| 2026-05-07 17:59 | 43.34214 | -1.76691 | 33227 ft | 426 kts | 236° |
| 2026-05-07 17:59 | 43.32567 | -1.80073 | 33619 ft | 425 kts | 236° |
| 2026-05-07 17:59 | 43.30915 | -1.83440 | 33979 ft | 425 kts | 236° |
| 2026-05-07 18:00 | 43.29207 | -1.86744 | 34292 ft | 425 kts | 234° |
| 2026-05-07 18:00 | 43.27436 | -1.89986 | 34592 ft | 425 kts | 233° |
| 2026-05-07 18:00 | 43.25628 | -1.93202 | 34885 ft | 425 kts | 233° |
| 2026-05-07 18:00 | 43.23809 | -1.96403 | 35165 ft | 426 kts | 233° |
| 2026-05-07 18:01 | 43.21993 | -1.99608 | 35429 ft | 426 kts | 233° |
| 2026-05-07 18:01 | 43.20179 | -2.02835 | 35698 ft | 427 kts | 233° |
| 2026-05-07 18:01 | 43.18381 | -2.06065 | 35955 ft | 427 kts | 233° |
| 2026-05-07 18:01 | 43.16586 | -2.09307 | 36190 ft | 427 kts | 233° |
| 2026-05-07 18:02 | 43.12997 | -2.15803 | 36681 ft | 428 kts | 233° |
| 2026-05-07 18:02 | 43.11196 | -2.19051 | 36874 ft | 429 kts | 233° |
| 2026-05-07 18:03 | 43.07570 | -2.25555 | 36924 ft | 430 kts | 233° |
| 2026-05-07 18:03 | 43.03941 | -2.32049 | 36927 ft | 430 kts | 233° |
| 2026-05-07 18:04 | 43.00313 | -2.38542 | 36928 ft | 430 kts | 233° |
| 2026-05-07 18:04 | 42.96679 | -2.45021 | 36924 ft | 429 kts | 233° |
| 2026-05-07 18:05 | 42.93042 | -2.51486 | 36923 ft | 429 kts | 233° |
| 2026-05-07 18:05 | 42.89405 | -2.57943 | 36920 ft | 429 kts | 233° |
| 2026-05-07 18:06 | 42.85764 | -2.64386 | 36921 ft | 429 kts | 234° |
| 2026-05-07 18:06 | 42.82146 | -2.70786 | 36922 ft | 429 kts | 234° |
| 2026-05-07 18:07 | 42.78503 | -2.77212 | 36924 ft | 429 kts | 234° |
| 2026-05-07 18:07 | 42.74850 | -2.83635 | 36930 ft | 429 kts | 234° |
| 2026-05-07 18:08 | 42.71214 | -2.90056 | 36934 ft | 428 kts | 234° |
| 2026-05-07 18:08 | 42.67635 | -2.96513 | 36940 ft | 428 kts | 235° |
| 2026-05-07 18:09 | 42.64062 | -3.02971 | 36938 ft | 427 kts | 235° |
| 2026-05-07 18:09 | 42.60474 | -3.09406 | 36938 ft | 427 kts | 234° |
| 2026-05-07 18:10 | 42.56878 | -3.15828 | 36936 ft | 427 kts | 234° |
| 2026-05-07 18:10 | 42.53277 | -3.22241 | 36933 ft | 428 kts | 235° |
| 2026-05-07 18:11 | 42.50280 | -3.27571 | 36934 ft | 428 kts | 235° |
| 2026-05-07 18:11 | 42.46668 | -3.33983 | 36932 ft | 428 kts | 235° |
| 2026-05-07 18:12 | 42.43054 | -3.40394 | 36934 ft | 428 kts | 235° |
| 2026-05-07 18:12 | 42.39434 | -3.46794 | 36935 ft | 428 kts | 235° |
| 2026-05-07 18:13 | 42.35807 | -3.53189 | 36936 ft | 428 kts | 235° |
| 2026-05-07 18:13 | 42.32182 | -3.59579 | 36935 ft | 428 kts | 235° |
| 2026-05-07 18:14 | 42.28551 | -3.65964 | 36934 ft | 429 kts | 235° |
| 2026-05-07 18:14 | 42.24916 | -3.72342 | 36936 ft | 429 kts | 235° |
| 2026-05-07 18:15 | 42.21277 | -3.78707 | 36932 ft | 428 kts | 236° |
| 2026-05-07 18:15 | 42.17637 | -3.85078 | 36940 ft | 428 kts | 236° |
| 2026-05-07 18:16 | 42.13994 | -3.91432 | 36925 ft | 428 kts | 236° |
| 2026-05-07 18:16 | 42.10340 | -3.97773 | 36920 ft | 428 kts | 236° |
| 2026-05-07 18:17 | 42.06690 | -4.04097 | 36929 ft | 428 kts | 236° |
| 2026-05-07 18:17 | 42.03118 | -4.10483 | 36927 ft | 425 kts | 242° |
| 2026-05-07 18:18 | 42.00658 | -4.17570 | 36931 ft | 420 kts | 250° |
| 2026-05-07 18:18 | 41.98376 | -4.24803 | 36924 ft | 420 kts | 250° |
| 2026-05-07 18:19 | 41.96074 | -4.32012 | 36929 ft | 420 kts | 250° |
| 2026-05-07 18:19 | 41.93767 | -4.39209 | 36927 ft | 419 kts | 250° |
| 2026-05-07 18:20 | 41.91474 | -4.46394 | 36930 ft | 418 kts | 250° |
| 2026-05-07 18:20 | 41.89178 | -4.53562 | 36932 ft | 418 kts | 250° |
| 2026-05-07 18:21 | 41.86884 | -4.60716 | 36928 ft | 417 kts | 250° |
| 2026-05-07 18:21 | 41.84585 | -4.67849 | 36928 ft | 416 kts | 250° |
| 2026-05-07 18:22 | 41.82283 | -4.74963 | 36928 ft | 415 kts | 250° |
| 2026-05-07 18:22 | 41.79977 | -4.82061 | 36929 ft | 415 kts | 250° |
| 2026-05-07 18:23 | 41.77680 | -4.89139 | 36926 ft | 414 kts | 250° |
| 2026-05-07 18:23 | 41.75385 | -4.96199 | 36928 ft | 413 kts | 250° |
| 2026-05-07 18:24 | 41.73093 | -5.03232 | 36927 ft | 412 kts | 250° |
| 2026-05-07 18:24 | 41.70794 | -5.10252 | 36927 ft | 411 kts | 250° |
| 2026-05-07 18:25 | 41.68501 | -5.17242 | 36928 ft | 410 kts | 250° |
| 2026-05-07 18:25 | 41.66211 | -5.24212 | 36923 ft | 409 kts | 250° |
| 2026-05-07 18:26 | 41.63918 | -5.31156 | 36920 ft | 408 kts | 250° |
| 2026-05-07 18:26 | 41.61628 | -5.38084 | 36910 ft | 407 kts | 250° |
| 2026-05-07 18:27 | 41.59333 | -5.44988 | 36908 ft | 406 kts | 250° |
| 2026-05-07 18:27 | 41.57044 | -5.51872 | 36903 ft | 405 kts | 250° |
| 2026-05-07 18:28 | 41.54762 | -5.58741 | 36891 ft | 404 kts | 249° |
| 2026-05-07 18:28 | 41.52210 | -5.65436 | 36891 ft | 409 kts | 239° |
| 2026-05-07 18:29 | 41.48840 | -5.71558 | 36889 ft | 409 kts | 238° |
| 2026-05-07 18:29 | 41.45469 | -5.77671 | 36889 ft | 409 kts | 238° |
| 2026-05-07 18:30 | 41.42102 | -5.83770 | 36883 ft | 408 kts | 238° |
| 2026-05-07 18:30 | 41.38733 | -5.89854 | 36884 ft | 408 kts | 238° |
| 2026-05-07 18:31 | 41.35360 | -5.95934 | 36875 ft | 408 kts | 238° |
| 2026-05-07 18:31 | 41.31985 | -6.02002 | 36871 ft | 408 kts | 238° |
| 2026-05-07 18:32 | 41.28620 | -6.08067 | 36866 ft | 408 kts | 238° |
| 2026-05-07 18:32 | 41.25242 | -6.14121 | 36864 ft | 408 kts | 238° |
| 2026-05-07 18:33 | 41.21881 | -6.20128 | 36859 ft | 408 kts | 238° |
| 2026-05-07 18:33 | 41.18495 | -6.26164 | 36861 ft | 408 kts | 238° |
| 2026-05-07 18:34 | 41.15105 | -6.32205 | 36857 ft | 408 kts | 237° |
| 2026-05-07 18:34 | 41.11713 | -6.38232 | 36859 ft | 408 kts | 237° |
| 2026-05-07 18:35 | 41.08317 | -6.44252 | 36857 ft | 408 kts | 237° |
| 2026-05-07 18:35 | 41.04923 | -6.50273 | 36858 ft | 407 kts | 237° |
| 2026-05-07 18:36 | 41.01526 | -6.56279 | 36862 ft | 407 kts | 237° |
| 2026-05-07 18:36 | 40.98127 | -6.62281 | 36859 ft | 407 kts | 237° |
| 2026-05-07 18:37 | 40.94724 | -6.68264 | 36859 ft | 407 kts | 237° |
| 2026-05-07 18:37 | 40.91320 | -6.74236 | 36861 ft | 407 kts | 237° |
| 2026-05-07 18:38 | 40.87918 | -6.80208 | 36862 ft | 406 kts | 237° |
| 2026-05-07 18:38 | 40.84519 | -6.86162 | 36860 ft | 406 kts | 237° |
| 2026-05-07 18:39 | 40.81115 | -6.92101 | 36866 ft | 405 kts | 237° |
| 2026-05-07 18:39 | 40.77715 | -6.98030 | 36870 ft | 405 kts | 237° |
| 2026-05-07 18:40 | 40.74312 | -7.03944 | 36872 ft | 404 kts | 237° |
| 2026-05-07 18:40 | 40.70917 | -7.09844 | 36877 ft | 404 kts | 236° |
| 2026-05-07 18:41 | 40.67520 | -7.15728 | 36875 ft | 403 kts | 236° |
| 2026-05-07 18:41 | 40.64152 | -7.21559 | 36877 ft | 402 kts | 236° |
| 2026-05-07 18:42 | 40.60764 | -7.27412 | 36880 ft | 402 kts | 236° |
| 2026-05-07 18:42 | 40.57379 | -7.33253 | 36881 ft | 401 kts | 236° |
| 2026-05-07 18:43 | 40.53997 | -7.39083 | 36884 ft | 401 kts | 236° |
| 2026-05-07 18:43 | 40.50611 | -7.44889 | 36888 ft | 400 kts | 236° |
| 2026-05-07 18:44 | 40.47225 | -7.50682 | 36892 ft | 399 kts | 236° |
| 2026-05-07 18:44 | 40.43848 | -7.56464 | 36892 ft | 399 kts | 236° |
| 2026-05-07 18:45 | 40.40470 | -7.62230 | 36899 ft | 398 kts | 235° |
| 2026-05-07 18:45 | 40.37097 | -7.67982 | 36905 ft | 397 kts | 235° |
| 2026-05-07 18:46 | 40.33728 | -7.73717 | 36864 ft | 396 kts | 235° |
| 2026-05-07 18:46 | 40.32052 | -7.76562 | 36424 ft | 392 kts | 235° |
| 2026-05-07 18:46 | 40.30391 | -7.79375 | 35962 ft | 389 kts | 235° |
| 2026-05-07 18:46 | 40.28742 | -7.82167 | 35504 ft | 388 kts | 235° |
| 2026-05-07 18:47 | 40.27088 | -7.84963 | 35056 ft | 389 kts | 235° |
| 2026-05-07 18:47 | 40.25424 | -7.87775 | 34610 ft | 391 kts | 235° |
| 2026-05-07 18:47 | 40.23753 | -7.90606 | 34179 ft | 394 kts | 235° |
| 2026-05-07 18:47 | 40.22099 | -7.93407 | 33726 ft | 396 kts | 235° |
| 2026-05-07 18:48 | 40.20408 | -7.96272 | 33241 ft | 399 kts | 234° |
| 2026-05-07 18:48 | 40.18663 | -7.99115 | 32757 ft | 403 kts | 229° |
| 2026-05-07 18:48 | 40.16450 | -8.01404 | 32286 ft | 411 kts | 214° |
| 2026-05-07 18:48 | 40.13943 | -8.03228 | 31826 ft | 415 kts | 212° |
| 2026-05-07 18:49 | 40.11399 | -8.05043 | 31365 ft | 417 kts | 212° |
| 2026-05-07 18:49 | 40.08838 | -8.06848 | 30918 ft | 419 kts | 212° |
| 2026-05-07 18:49 | 40.06259 | -8.08658 | 30474 ft | 421 kts | 212° |
| 2026-05-07 18:49 | 40.03667 | -8.10473 | 30034 ft | 423 kts | 211° |
| 2026-05-07 18:50 | 40.01070 | -8.12293 | 29544 ft | 425 kts | 211° |
| 2026-05-07 18:50 | 39.98464 | -8.14123 | 29038 ft | 426 kts | 211° |
| 2026-05-07 18:50 | 39.95853 | -8.15960 | 28545 ft | 428 kts | 211° |
| 2026-05-07 18:50 | 39.93234 | -8.17803 | 28067 ft | 426 kts | 211° |
| 2026-05-07 18:51 | 39.90644 | -8.19626 | 27597 ft | 423 kts | 211° |
| 2026-05-07 18:51 | 39.88059 | -8.21444 | 27128 ft | 420 kts | 211° |
| 2026-05-07 18:51 | 39.85495 | -8.23246 | 26671 ft | 417 kts | 211° |
| 2026-05-07 18:51 | 39.82955 | -8.25030 | 26221 ft | 414 kts | 210° |
| 2026-05-07 18:52 | 39.80431 | -8.26801 | 25780 ft | 410 kts | 210° |
| 2026-05-07 18:52 | 39.77929 | -8.28556 | 25341 ft | 407 kts | 210° |
| 2026-05-07 18:52 | 39.75442 | -8.30295 | 24916 ft | 404 kts | 210° |
| 2026-05-07 18:52 | 39.72975 | -8.32017 | 24491 ft | 401 kts | 210° |
| 2026-05-07 18:53 | 39.70587 | -8.33860 | 24074 ft | 397 kts | 216° |
| 2026-05-07 18:53 | 39.68438 | -8.36080 | 23666 ft | 393 kts | 223° |
| 2026-05-07 18:53 | 39.66572 | -8.38615 | 23209 ft | 384 kts | 230° |
| 2026-05-07 18:53 | 39.64955 | -8.41335 | 22726 ft | 378 kts | 232° |
| 2026-05-07 18:54 | 39.63373 | -8.44027 | 22250 ft | 373 kts | 232° |
| 2026-05-07 18:54 | 39.61767 | -8.46638 | 21780 ft | 368 kts | 226° |
| 2026-05-07 18:54 | 39.59839 | -8.48784 | 21318 ft | 365 kts | 218° |
| 2026-05-07 18:54 | 39.57856 | -8.50828 | 20863 ft | 362 kts | 218° |
| 2026-05-07 18:55 | 39.55892 | -8.52841 | 20419 ft | 358 kts | 218° |
| 2026-05-07 18:55 | 39.53945 | -8.54830 | 19973 ft | 355 kts | 218° |
| 2026-05-07 18:55 | 39.52017 | -8.56795 | 19531 ft | 351 kts | 217° |
| 2026-05-07 18:55 | 39.50105 | -8.58746 | 19114 ft | 348 kts | 217° |
| 2026-05-07 18:56 | 39.48215 | -8.60680 | 18691 ft | 345 kts | 217° |
| 2026-05-07 18:56 | 39.46362 | -8.62637 | 18278 ft | 343 kts | 218° |
| 2026-05-07 18:56 | 39.44540 | -8.64610 | 17806 ft | 340 kts | 218° |
| 2026-05-07 18:56 | 39.42737 | -8.66583 | 17327 ft | 338 kts | 218° |
| 2026-05-07 18:57 | 39.40951 | -8.68542 | 16857 ft | 336 kts | 218° |
| 2026-05-07 18:57 | 39.39192 | -8.70463 | 16397 ft | 334 kts | 218° |
| 2026-05-07 18:57 | 39.37418 | -8.72390 | 15944 ft | 332 kts | 218° |
| 2026-05-07 18:57 | 39.35652 | -8.74299 | 15495 ft | 330 kts | 218° |
| 2026-05-07 18:58 | 39.33893 | -8.76196 | 15052 ft | 329 kts | 218° |
| 2026-05-07 18:58 | 39.32140 | -8.78085 | 14614 ft | 327 kts | 218° |
| 2026-05-07 18:58 | 39.30398 | -8.79959 | 14188 ft | 325 kts | 218° |
| 2026-05-07 18:58 | 39.28662 | -8.81826 | 13759 ft | 324 kts | 218° |
| 2026-05-07 18:59 | 39.26940 | -8.83679 | 13279 ft | 322 kts | 218° |
| 2026-05-07 18:59 | 39.25222 | -8.85528 | 12806 ft | 320 kts | 218° |
| 2026-05-07 18:59 | 39.24071 | -8.86765 | 12493 ft | 319 kts | 218° |
| 2026-05-07 18:59 | 39.22374 | -8.88588 | 12043 ft | 316 kts | 218° |
| 2026-05-07 19:00 | 39.20699 | -8.90386 | 11752 ft | 309 kts | 218° |
| 2026-05-07 19:00 | 39.19086 | -8.92116 | 11499 ft | 302 kts | 218° |
| 2026-05-07 19:00 | 39.17494 | -8.93824 | 11253 ft | 295 kts | 218° |
| 2026-05-07 19:00 | 39.15935 | -8.95494 | 11021 ft | 288 kts | 218° |
| 2026-05-07 19:01 | 39.14416 | -8.97119 | 10925 ft | 281 kts | 218° |
| 2026-05-07 19:01 | 39.12918 | -8.98722 | 10933 ft | 280 kts | 218° |
| 2026-05-07 19:01 | 39.11419 | -9.00323 | 10934 ft | 280 kts | 217° |
| 2026-05-07 19:01 | 39.09919 | -9.01921 | 10934 ft | 280 kts | 217° |
| 2026-05-07 19:02 | 39.08421 | -9.03516 | 10937 ft | 280 kts | 218° |
| 2026-05-07 19:02 | 39.06922 | -9.05112 | 10932 ft | 279 kts | 217° |
| 2026-05-07 19:02 | 39.05425 | -9.06707 | 10932 ft | 280 kts | 218° |
| 2026-05-07 19:02 | 39.03926 | -9.08307 | 10931 ft | 280 kts | 218° |
| 2026-05-07 19:03 | 39.02429 | -9.09903 | 10935 ft | 279 kts | 218° |
| 2026-05-07 19:03 | 39.00932 | -9.11497 | 10930 ft | 279 kts | 218° |
| 2026-05-07 19:03 | 38.99434 | -9.13089 | 10934 ft | 279 kts | 218° |
| 2026-05-07 19:03 | 38.97942 | -9.14679 | 10930 ft | 279 kts | 218° |
| 2026-05-07 19:04 | 38.96445 | -9.16274 | 10930 ft | 279 kts | 218° |
| 2026-05-07 19:04 | 38.94949 | -9.17867 | 10930 ft | 279 kts | 218° |
| 2026-05-07 19:04 | 38.93455 | -9.19456 | 10926 ft | 279 kts | 217° |
| 2026-05-07 19:04 | 38.91954 | -9.21051 | 10926 ft | 279 kts | 218° |
| 2026-05-07 19:05 | 38.90458 | -9.22641 | 10924 ft | 279 kts | 217° |
| 2026-05-07 19:05 | 38.88957 | -9.24233 | 10788 ft | 280 kts | 217° |
| 2026-05-07 19:05 | 38.87463 | -9.25818 | 10554 ft | 278 kts | 218° |
| 2026-05-07 19:05 | 38.85978 | -9.27392 | 10302 ft | 276 kts | 217° |
| 2026-05-07 19:06 | 38.84499 | -9.28955 | 10089 ft | 275 kts | 217° |
| 2026-05-07 19:06 | 38.81549 | -9.32067 | 9743 ft | 274 kts | 218° |
| 2026-05-07 19:06 | 38.80078 | -9.33621 | 9610 ft | 274 kts | 218° |
| 2026-05-07 19:07 | 38.78610 | -9.35171 | 9476 ft | 274 kts | 218° |
| 2026-05-07 19:07 | 38.77142 | -9.36723 | 9340 ft | 273 kts | 218° |
| 2026-05-07 19:07 | 38.75677 | -9.38270 | 9208 ft | 273 kts | 218° |
| 2026-05-07 19:07 | 38.74211 | -9.39813 | 9076 ft | 273 kts | 218° |
| 2026-05-07 19:08 | 38.72743 | -9.41360 | 8945 ft | 273 kts | 218° |
| 2026-05-07 19:08 | 38.71280 | -9.42903 | 8816 ft | 272 kts | 218° |
| 2026-05-07 19:08 | 38.69817 | -9.44442 | 8683 ft | 272 kts | 218° |
| 2026-05-07 19:08 | 38.68357 | -9.45978 | 8555 ft | 272 kts | 218° |
| 2026-05-07 19:09 | 38.66900 | -9.47511 | 8424 ft | 271 kts | 218° |
| 2026-05-07 19:09 | 38.65443 | -9.49044 | 8298 ft | 271 kts | 218° |
| 2026-05-07 19:09 | 38.63988 | -9.50571 | 8166 ft | 270 kts | 218° |
| 2026-05-07 19:09 | 38.62557 | -9.52070 | 8044 ft | 260 kts | 218° |
| 2026-05-07 19:10 | 38.61193 | -9.53497 | 7939 ft | 246 kts | 218° |
| 2026-05-07 19:10 | 38.59757 | -9.54569 | 7948 ft | 237 kts | 200° |
| 2026-05-07 19:10 | 38.58148 | -9.54953 | 7949 ft | 237 kts | 181° |
| 2026-05-07 19:10 | 38.56516 | -9.54676 | 7948 ft | 238 kts | 169° |
| 2026-05-07 19:11 | 38.54894 | -9.54262 | 7950 ft | 238 kts | 170° |
| 2026-05-07 19:11 | 38.53271 | -9.53852 | 7949 ft | 237 kts | 170° |
| 2026-05-07 19:11 | 38.51651 | -9.53440 | 7949 ft | 237 kts | 170° |
| 2026-05-07 19:11 | 38.50042 | -9.52948 | 7948 ft | 239 kts | 161° |
| 2026-05-07 19:12 | 38.48574 | -9.51941 | 7951 ft | 241 kts | 148° |
| 2026-05-07 19:12 | 38.47185 | -9.50748 | 7947 ft | 241 kts | 148° |
| 2026-05-07 19:12 | 38.45791 | -9.49559 | 7944 ft | 241 kts | 148° |
| 2026-05-07 19:12 | 38.44392 | -9.48371 | 7949 ft | 241 kts | 148° |
| 2026-05-07 19:13 | 38.42994 | -9.47187 | 7949 ft | 241 kts | 149° |
| 2026-05-07 19:13 | 38.41677 | -9.45870 | 7949 ft | 243 kts | 136° |
| 2026-05-07 19:13 | 38.40661 | -9.44136 | 7951 ft | 245 kts | 126° |
| 2026-05-07 19:13 | 38.39722 | -9.42324 | 7944 ft | 243 kts | 124° |
| 2026-05-07 19:14 | 38.39170 | -9.40355 | 7948 ft | 236 kts | 99° |
| 2026-05-07 19:14 | 38.39341 | -9.38204 | 7948 ft | 253 kts | 71° |
| 2026-05-07 19:14 | 38.40310 | -9.36326 | 7953 ft | 259 kts | 42° |
| 2026-05-07 19:14 | 38.41841 | -9.35119 | 7949 ft | 261 kts | 27° |
| 2026-05-07 19:15 | 38.43418 | -9.34086 | 7942 ft | 247 kts | 27° |
| 2026-05-07 19:15 | 38.44902 | -9.33116 | 7946 ft | 232 kts | 27° |
| 2026-05-07 19:15 | 38.46308 | -9.32197 | 7776 ft | 227 kts | 27° |
| 2026-05-07 19:15 | 38.47727 | -9.31269 | 7446 ft | 230 kts | 27° |
| 2026-05-07 19:16 | 38.49151 | -9.30336 | 7151 ft | 230 kts | 26° |
| 2026-05-07 19:16 | 38.50578 | -9.29399 | 6851 ft | 231 kts | 27° |
| 2026-05-07 19:16 | 38.52004 | -9.28450 | 6546 ft | 232 kts | 27° |
| 2026-05-07 19:16 | 38.53412 | -9.27501 | 6220 ft | 225 kts | 27° |
| 2026-05-07 19:17 | 38.54778 | -9.26570 | 5819 ft | 219 kts | 27° |
| 2026-05-07 19:17 | 38.56115 | -9.25685 | 5428 ft | 214 kts | 23° |
| 2026-05-07 19:17 | 38.57450 | -9.24893 | 5055 ft | 209 kts | 21° |
| 2026-05-07 19:17 | 38.58766 | -9.24138 | 4679 ft | 205 kts | 21° |
| 2026-05-07 19:18 | 38.60055 | -9.23402 | 4291 ft | 201 kts | 21° |
| 2026-05-07 19:18 | 38.61321 | -9.22676 | 3906 ft | 198 kts | 20° |
| 2026-05-07 19:18 | 38.62570 | -9.21938 | 3524 ft | 196 kts | 20° |
| 2026-05-07 19:18 | 38.63813 | -9.21245 | 3162 ft | 194 kts | 19° |
| 2026-05-07 19:19 | 38.65035 | -9.20585 | 2845 ft | 187 kts | 19° |
| 2026-05-07 19:19 | 38.66197 | -9.19964 | 2596 ft | 178 kts | 18° |
| 2026-05-07 19:19 | 38.67298 | -9.19375 | 2359 ft | 162 kts | 18° |
| 2026-05-07 19:19 | 38.68310 | -9.18836 | 2138 ft | 152 kts | 17° |
| 2026-05-07 19:20 | 38.69263 | -9.18328 | 1950 ft | 147 kts | 17° |
| 2026-05-07 19:20 | 38.70176 | -9.17840 | 1750 ft | 139 kts | 17° |
| 2026-05-07 19:20 | 38.71060 | -9.17370 | 1564 ft | 136 kts | 15° |
| 2026-05-07 19:20 | 38.71935 | -9.16903 | 1372 ft | 133 kts | 17° |
| 2026-05-07 19:21 | 38.72776 | -9.16455 | 1194 ft | 132 kts | 17° |
| 2026-05-07 19:21 | 38.73616 | -9.16006 | 1016 ft | 129 kts | 17° |
| 2026-05-07 19:21 | 38.74451 | -9.15561 | 832 ft | 130 kts | 18° |
| 2026-05-07 19:21 | 38.75291 | -9.15113 | 668 ft | 132 kts | 18° |
| 2026-05-07 19:22 | 38.76131 | -9.14660 | 531 ft | 130 kts | 17° |
| 2026-05-07 19:22 | 38.76952 | -9.14226 | 385 ft | 125 kts | 17° |
| 2026-05-07 19:22 | 38.77663 | -9.13868 | 356 ft | 89 kts | 21° |
| 2026-05-07 19:22 | 38.78086 | -9.13623 | 361 ft | 54 kts | 25° |
| 2026-05-07 19:23 | 38.78319 | -9.13421 | 353 ft | 13 kts | 51° |
| 2026-05-07 19:23 | 38.78368 | -9.13347 | 355 ft | 5 kts | 58° |
| 2026-05-07 19:23 | 38.78375 | -9.13321 | 357 ft | 0 kts | 79° |
| 2026-05-07 19:23 | 38.78375 | -9.13313 | 357 ft | 3 kts | 89° |
| 2026-05-07 19:24 | 38.78356 | -9.13275 | 357 ft | 6 kts | 141° |
| 2026-05-07 19:24 | 38.78310 | -9.13272 | 352 ft | 7 kts | 193° |
| 2026-05-07 19:24 | 38.78260 | -9.13295 | 356 ft | 8 kts | 201° |
| 2026-05-07 19:24 | 38.78205 | -9.13323 | 354 ft | 9 kts | 202° |
| 2026-05-07 19:25 | 38.78144 | -9.13355 | 355 ft | 10 kts | 202° |
| 2026-05-07 19:25 | 38.78130 | -9.13363 | 360 ft | 0 kts | 203° |
| 2026-05-07 19:27 | 38.78120 | -9.13368 | 357 ft | 3 kts | 203° |
| 2026-05-07 19:27 | 38.78090 | -9.13385 | 354 ft | 6 kts | 203° |
| 2026-05-07 19:27 | 38.78038 | -9.13414 | 359 ft | 10 kts | 203° |
| 2026-05-07 19:28 | 38.77967 | -9.13453 | 358 ft | 13 kts | 203° |
| 2026-05-07 19:28 | 38.77878 | -9.13500 | 362 ft | 15 kts | 202° |
| 2026-05-07 19:28 | 38.77770 | -9.13556 | 355 ft | 18 kts | 201° |
| 2026-05-07 19:28 | 38.77633 | -9.13595 | 356 ft | 22 kts | 174° |
| 2026-05-07 19:29 | 38.77475 | -9.13549 | 351 ft | 24 kts | 167° |
| 2026-05-07 19:29 | 38.77314 | -9.13502 | 351 ft | 24 kts | 167° |
| 2026-05-07 19:29 | 38.77148 | -9.13458 | 351 ft | 24 kts | 168° |
| 2026-05-07 19:29 | 38.76980 | -9.13414 | 354 ft | 25 kts | 168° |
| 2026-05-07 19:30 | 38.76854 | -9.13381 | 352 ft | 12 kts | 168° |
| 2026-05-07 19:30 | 38.76821 | -9.13372 | 352 ft | 0 kts | 168° |
| 2026-05-07 19:30 | 38.76815 | -9.13370 | 352 ft | 1 kts | 168° |
| 2026-05-07 19:30 | 38.76798 | -9.13366 | 352 ft | 5 kts | 170° |
| 2026-05-07 19:31 | 38.76741 | -9.13387 | 354 ft | 12 kts | 209° |
| 2026-05-07 19:31 | 38.76663 | -9.13468 | 354 ft | 16 kts | 237° |
| 2026-05-07 19:31 | 38.76633 | -9.13613 | 351 ft | 17 kts | 260° |
| 2026-05-07 19:31 | 38.76551 | -9.13684 | 356 ft | 15 kts | 199° |
| 2026-05-07 19:32 | 38.76485 | -9.13684 | 356 ft | 6 kts | 167° |
| 2026-05-07 19:32 | 38.76466 | -9.13678 | 351 ft | 0 kts | 167° |